createdAt,value
2016-12-20T00:00:06.365Z,0
2016-12-20T00:01:07.017Z,0
2016-12-20T00:02:06.348Z,0
2016-12-20T00:03:06.357Z,0
2016-12-20T00:04:06.997Z,0
2016-12-20T00:05:07.001Z,0
2016-12-20T00:06:06.337Z,0
2016-12-20T00:07:06.653Z,0
2016-12-20T00:08:06.321Z,0
2016-12-20T00:09:06.317Z,0
2016-12-20T00:10:06.977Z,0
2016-12-20T00:11:06.309Z,0
2016-12-20T00:12:06.641Z,0
2016-12-20T00:13:06.621Z,0
2016-12-20T00:14:06.945Z,0
2016-12-20T00:15:06.286Z,0
2016-12-20T00:16:06.610Z,0
2016-12-20T00:17:06.607Z,0
2016-12-20T00:18:06.266Z,0
2016-12-20T00:19:06.266Z,0
2016-12-20T00:20:06.910Z,0
2016-12-20T00:21:06.582Z,0
2016-12-20T00:22:06.578Z,0
2016-12-20T00:23:05.914Z,0
2016-12-20T00:24:06.566Z,0
2016-12-20T00:25:06.570Z,0
2016-12-20T00:26:06.882Z,0
2016-12-20T00:27:06.558Z,0
2016-12-20T00:28:06.226Z,0
2016-12-20T00:29:06.546Z,0
2016-12-20T00:30:06.542Z,0
2016-12-20T00:31:06.867Z,0
2016-12-20T00:32:06.523Z,0
2016-12-20T00:33:06.523Z,0
2016-12-20T00:34:06.195Z,0
2016-12-20T00:35:05.886Z,0
2016-12-20T00:36:06.830Z,0
2016-12-20T00:37:06.835Z,0
2016-12-20T00:38:06.495Z,0
2016-12-20T00:39:06.827Z,0
2016-12-20T00:40:05.835Z,0
2016-12-20T00:41:06.147Z,0
2016-12-20T00:42:06.471Z,0
2016-12-20T00:43:06.795Z,0
2016-12-20T00:44:06.467Z,0
2016-12-20T00:45:06.783Z,0
2016-12-20T00:46:06.455Z,0
2016-12-20T00:47:06.462Z,0
2016-12-20T00:48:06.108Z,0
2016-12-20T00:49:06.116Z,0
2016-12-20T00:50:06.432Z,0
2016-12-20T00:51:06.428Z,0
2016-12-20T00:52:06.748Z,0
2016-12-20T00:53:06.112Z,0
2016-12-20T00:54:06.400Z,0
2016-12-20T00:55:06.408Z,0
2016-12-20T00:56:06.071Z,0
2016-12-20T00:57:06.392Z,0
2016-12-20T00:58:06.392Z,0
2016-12-20T00:59:06.052Z,0
2016-12-20T01:00:06.372Z,0
2016-12-20T01:01:06.388Z,0
2016-12-20T01:02:06.696Z,0
2016-12-20T01:03:06.376Z,0
2016-12-20T01:04:06.040Z,0
2016-12-20T01:05:06.692Z,0
2016-12-20T01:06:06.349Z,0
2016-12-20T01:07:06.021Z,0
2016-12-20T01:08:06.344Z,0
2016-12-20T01:09:06.661Z,0
2016-12-20T01:10:06.005Z,0
2016-12-20T01:11:06.333Z,0
2016-12-20T01:12:06.313Z,0
2016-12-20T01:13:06.317Z,0
2016-12-20T01:14:06.309Z,0
2016-12-20T01:15:05.985Z,0
2016-12-20T01:16:06.657Z,0
2016-12-20T01:17:05.965Z,0
2016-12-20T01:18:05.965Z,0
2016-12-20T01:19:06.289Z,0
2016-12-20T01:20:06.606Z,0
2016-12-20T01:21:06.265Z,0
2016-12-20T01:22:05.937Z,0
2016-12-20T01:23:05.937Z,0
2016-12-20T01:24:06.250Z,0
2016-12-20T01:25:06.574Z,0
2016-12-20T01:26:06.570Z,0
2016-12-20T01:27:06.237Z,0
2016-12-20T01:28:06.246Z,0
2016-12-20T01:29:05.578Z,0
2016-12-20T01:30:05.902Z,0
2016-12-20T01:31:05.918Z,0
2016-12-20T01:32:06.210Z,0
2016-12-20T01:33:06.211Z,0
2016-12-20T01:34:06.194Z,0
2016-12-20T01:35:06.526Z,0
2016-12-20T01:36:06.206Z,0
2016-12-20T01:37:06.182Z,0
2016-12-20T01:38:06.518Z,0
2016-12-20T01:39:06.503Z,0
2016-12-20T01:40:06.503Z,0
2016-12-20T01:41:05.515Z,0
2016-12-20T01:42:06.482Z,0
2016-12-20T01:43:06.158Z,0
2016-12-20T01:44:06.171Z,0
2016-12-20T01:45:05.491Z,0
2016-12-20T01:46:06.170Z,0
2016-12-20T01:47:05.803Z,0
2016-12-20T01:48:05.479Z,0
2016-12-20T01:49:05.795Z,0
2016-12-20T01:50:06.119Z,0
2016-12-20T01:51:05.467Z,0
2016-12-20T01:52:06.107Z,0
2016-12-20T01:53:06.431Z,0
2016-12-20T01:54:05.776Z,0
2016-12-20T01:55:06.432Z,0
2016-12-20T01:56:06.091Z,0
2016-12-20T01:57:06.408Z,0
2016-12-20T01:58:05.748Z,0
2016-12-20T01:59:06.076Z,0
2016-12-20T02:00:06.072Z,0
2016-12-20T02:01:06.064Z,0
2016-12-20T02:02:05.732Z,0
2016-12-20T02:03:06.053Z,0
2016-12-20T02:04:05.716Z,0
2016-12-20T02:05:06.036Z,0
2016-12-20T02:06:06.040Z,0
2016-12-20T02:07:06.032Z,0
2016-12-20T02:08:06.017Z,0
2016-12-20T02:09:06.020Z,0
2016-12-20T02:10:06.013Z,0
2016-12-20T02:11:05.673Z,0
2016-12-20T02:12:05.345Z,0
2016-12-20T02:13:05.993Z,0
2016-12-20T02:14:05.997Z,0
2016-12-20T02:15:05.989Z,0
2016-12-20T02:16:05.989Z,0
2016-12-20T02:17:05.649Z,0
2016-12-20T02:18:06.293Z,0
2016-12-20T02:19:05.345Z,0
2016-12-20T02:20:05.309Z,0
2016-12-20T02:21:04.973Z,0
2016-12-20T02:22:05.941Z,0
2016-12-20T02:23:05.945Z,0
2016-12-20T02:24:05.941Z,0
2016-12-20T02:25:05.941Z,0
2016-12-20T02:26:06.258Z,0
2016-12-20T02:27:05.922Z,0
2016-12-20T02:28:05.586Z,0
2016-12-20T02:29:05.594Z,0
2016-12-20T02:30:06.250Z,0
2016-12-20T02:31:05.902Z,0
2016-12-20T02:32:05.914Z,0
2016-12-20T02:33:05.562Z,0
2016-12-20T02:34:05.566Z,0
2016-12-20T02:35:05.886Z,0
2016-12-20T02:36:06.206Z,0
2016-12-20T02:37:06.194Z,0
2016-12-20T02:38:06.194Z,0
2016-12-20T02:39:05.530Z,0
2016-12-20T02:40:05.522Z,0
2016-12-20T02:41:05.839Z,0
2016-12-20T02:42:05.514Z,0
2016-12-20T02:43:05.878Z,0
2016-12-20T02:44:05.826Z,0
2016-12-20T02:45:05.835Z,0
2016-12-20T02:46:06.151Z,0
2016-12-20T02:47:05.811Z,0
2016-12-20T02:48:05.482Z,0
2016-12-20T02:49:04.835Z,0
2016-12-20T02:50:05.803Z,0
2016-12-20T02:51:05.827Z,0
2016-12-20T02:52:06.115Z,0
2016-12-20T02:53:05.455Z,0
2016-12-20T02:54:05.783Z,0
2016-12-20T02:55:05.779Z,0
2016-12-20T02:56:06.087Z,0
2016-12-20T02:57:05.435Z,0
2016-12-20T02:58:06.091Z,0
2016-12-20T02:59:06.075Z,0
2016-12-20T03:00:05.748Z,0
2016-12-20T03:01:04.763Z,0
2016-12-20T03:02:05.415Z,0
2016-12-20T03:03:05.400Z,0
2016-12-20T03:04:05.727Z,0
2016-12-20T03:05:05.391Z,0
2016-12-20T03:06:05.707Z,0
2016-12-20T03:07:05.699Z,0
2016-12-20T03:08:05.376Z,0
2016-12-20T03:09:05.376Z,0
2016-12-20T03:10:06.040Z,0
2016-12-20T03:11:05.691Z,0
2016-12-20T03:12:05.688Z,0
2016-12-20T03:13:05.676Z,0
2016-12-20T03:14:05.667Z,0
2016-12-20T03:15:05.672Z,0
2016-12-20T03:16:05.652Z,0
2016-12-20T03:17:05.972Z,0
2016-12-20T03:18:05.649Z,0
2016-12-20T03:19:05.308Z,0
2016-12-20T03:20:05.324Z,0
2016-12-20T03:21:05.632Z,0
2016-12-20T03:22:05.644Z,0
2016-12-20T03:23:05.616Z,0
2016-12-20T03:24:05.296Z,0
2016-12-20T03:25:05.284Z,0
2016-12-20T03:26:05.928Z,0
2016-12-20T03:27:05.924Z,0
2016-12-20T03:28:05.916Z,0
2016-12-20T03:29:05.260Z,0
2016-12-20T03:30:05.777Z,0
2016-12-20T03:31:05.904Z,0
2016-12-20T03:32:05.572Z,0
2016-12-20T03:33:05.568Z,0
2016-12-20T03:34:05.560Z,0
2016-12-20T03:35:05.229Z,0
2016-12-20T03:36:05.224Z,0
2016-12-20T03:37:05.541Z,0
2016-12-20T03:38:05.533Z,0
2016-12-20T03:39:05.865Z,0
2016-12-20T03:40:05.201Z,0
2016-12-20T03:41:05.517Z,0
2016-12-20T03:42:05.849Z,0
2016-12-20T03:43:05.833Z,0
2016-12-20T03:44:05.185Z,0
2016-12-20T03:45:05.505Z,0
2016-12-20T03:46:05.501Z,0
2016-12-20T03:47:05.833Z,0
2016-12-20T03:48:05.525Z,0
2016-12-20T03:49:05.809Z,0
2016-12-20T03:50:05.477Z,0
2016-12-20T03:51:05.501Z,0
2016-12-20T03:52:05.457Z,0
2016-12-20T03:53:05.789Z,0
2016-12-20T03:54:05.817Z,0
2016-12-20T03:55:05.461Z,0
2016-12-20T03:56:05.769Z,0
2016-12-20T03:57:05.761Z,0
2016-12-20T03:58:05.425Z,0
2016-12-20T03:59:05.757Z,0
2016-12-20T04:00:05.105Z,0
2016-12-20T04:01:05.421Z,0
2016-12-20T04:02:05.402Z,0
2016-12-20T04:03:05.729Z,0
2016-12-20T04:04:05.406Z,0
2016-12-20T04:05:05.066Z,0
2016-12-20T04:06:05.065Z,0
2016-12-20T04:07:05.385Z,0
2016-12-20T04:08:05.057Z,0
2016-12-20T04:09:05.382Z,0
2016-12-20T04:10:05.701Z,0
2016-12-20T04:11:05.041Z,0
2016-12-20T04:12:05.365Z,0
2016-12-20T04:13:05.018Z,0
2016-12-20T04:14:05.346Z,0
2016-12-20T04:15:05.365Z,0
2016-12-20T04:16:05.334Z,0
2016-12-20T04:17:05.330Z,0
2016-12-20T04:18:05.330Z,0
2016-12-20T04:19:05.326Z,0
2016-12-20T04:20:05.642Z,0
2016-12-20T04:21:05.302Z,0
2016-12-20T04:22:05.626Z,0
2016-12-20T04:23:04.966Z,0
2016-12-20T04:24:05.290Z,0
2016-12-20T04:25:05.618Z,0
2016-12-20T04:26:04.958Z,0
2016-12-20T04:27:05.270Z,0
2016-12-20T04:28:05.262Z,0
2016-12-20T04:29:04.614Z,0
2016-12-20T04:30:05.266Z,0
2016-12-20T04:31:05.258Z,0
2016-12-20T04:32:05.574Z,0
2016-12-20T04:33:05.574Z,0
2016-12-20T04:34:05.234Z,0
2016-12-20T04:35:04.570Z,0
2016-12-20T04:36:04.578Z,0
2016-12-20T04:37:05.218Z,0
2016-12-20T04:38:04.894Z,0
2016-12-20T04:39:04.898Z,0
2016-12-20T04:40:04.878Z,0
2016-12-20T04:41:05.206Z,0
2016-12-20T04:42:05.198Z,0
2016-12-20T04:43:04.854Z,0
2016-12-20T04:44:04.890Z,0
2016-12-20T04:45:04.854Z,0
2016-12-20T04:46:04.846Z,0
2016-12-20T04:47:04.834Z,0
2016-12-20T04:48:04.834Z,0
2016-12-20T04:49:05.518Z,0
2016-12-20T04:50:05.146Z,0
2016-12-20T04:51:05.146Z,0
2016-12-20T04:52:05.146Z,0
2016-12-20T04:53:04.814Z,0
2016-12-20T04:54:05.458Z,0
2016-12-20T04:55:05.447Z,0
2016-12-20T04:56:05.454Z,0
2016-12-20T04:57:04.454Z,0
2016-12-20T04:58:05.143Z,0
2016-12-20T04:59:05.102Z,0
2016-12-20T05:00:05.114Z,0
2016-12-20T05:01:05.130Z,0
2016-12-20T05:02:04.763Z,0
2016-12-20T05:03:04.751Z,0
2016-12-20T05:04:04.751Z,0
2016-12-20T05:05:05.071Z,0
2016-12-20T05:06:05.071Z,0
2016-12-20T05:07:05.055Z,0
2016-12-20T05:08:05.382Z,0
2016-12-20T05:09:05.375Z,0
2016-12-20T05:10:05.370Z,0
2016-12-20T05:11:05.355Z,0
2016-12-20T05:12:04.703Z,0
2016-12-20T05:13:05.023Z,0
2016-12-20T05:14:05.351Z,0
2016-12-20T05:15:05.019Z,0
2016-12-20T05:16:05.012Z,0
2016-12-20T05:17:05.011Z,0
2016-12-20T05:18:05.007Z,0
2016-12-20T05:19:04.995Z,0
2016-12-20T05:20:04.989Z,0
2016-12-20T05:21:05.011Z,0
2016-12-20T05:22:05.311Z,0
2016-12-20T05:23:04.983Z,0
2016-12-20T05:24:05.287Z,0
2016-12-20T05:25:04.635Z,0
2016-12-20T05:26:04.619Z,0
2016-12-20T05:27:05.283Z,0
2016-12-20T05:28:04.951Z,0
2016-12-20T05:29:04.939Z,0
2016-12-20T05:30:05.263Z,0
2016-12-20T05:31:05.260Z,0
2016-12-20T05:32:04.643Z,0
2016-12-20T05:33:05.240Z,0
2016-12-20T05:34:05.235Z,0
2016-12-20T05:35:04.580Z,0
2016-12-20T05:36:04.615Z,0
2016-12-20T05:37:04.560Z,0
2016-12-20T05:38:04.231Z,0
2016-12-20T05:39:04.559Z,0
2016-12-20T05:40:05.207Z,0
2016-12-20T05:41:04.883Z,0
2016-12-20T05:42:05.195Z,0
2016-12-20T05:43:04.564Z,0
2016-12-20T05:44:04.528Z,0
2016-12-20T05:45:04.852Z,0
2016-12-20T05:46:04.856Z,0
2016-12-20T05:47:04.851Z,0
2016-12-20T05:48:05.192Z,0
2016-12-20T05:49:04.504Z,0
2016-12-20T05:50:04.824Z,0
2016-12-20T05:51:05.140Z,0
2016-12-20T05:52:04.820Z,0
2016-12-20T05:53:04.813Z,0
2016-12-20T05:54:04.800Z,0
2016-12-20T05:55:04.148Z,0
2016-12-20T05:56:04.468Z,0
2016-12-20T05:57:04.788Z,0
2016-12-20T05:58:04.784Z,0
2016-12-20T05:59:05.108Z,0
2016-12-20T06:00:04.444Z,0
2016-12-20T06:01:04.112Z,0
2016-12-20T06:02:04.767Z,0
2016-12-20T06:03:04.760Z,0
2016-12-20T06:04:04.420Z,0
2016-12-20T06:05:04.748Z,0
2016-12-20T06:06:04.411Z,0
2016-12-20T06:07:04.744Z,0
2016-12-20T06:08:04.732Z,0
2016-12-20T06:09:04.716Z,0
2016-12-20T06:10:04.728Z,0
2016-12-20T06:11:05.041Z,0
2016-12-20T06:12:04.712Z,0
2016-12-20T06:13:04.704Z,0
2016-12-20T06:14:04.697Z,0
2016-12-20T06:15:04.693Z,0
2016-12-20T06:16:05.021Z,0
2016-12-20T06:17:04.688Z,0
2016-12-20T06:18:04.356Z,0
2016-12-20T06:19:04.672Z,0
2016-12-20T06:20:04.340Z,0
2016-12-20T06:21:04.652Z,0
2016-12-20T06:22:04.347Z,0
2016-12-20T06:23:04.973Z,0
2016-12-20T06:24:04.317Z,0
2016-12-20T06:25:04.309Z,0
2016-12-20T06:26:04.957Z,0
2016-12-20T06:27:04.629Z,0
2016-12-20T06:28:04.621Z,0
2016-12-20T06:29:04.617Z,0
2016-12-20T06:30:04.609Z,0
2016-12-20T06:31:04.281Z,0
2016-12-20T06:32:04.273Z,0
2016-12-20T06:33:04.613Z,0
2016-12-20T06:34:04.264Z,0
2016-12-20T06:35:04.913Z,0
2016-12-20T06:36:04.581Z,0
2016-12-20T06:37:04.573Z,0
2016-12-20T06:38:04.560Z,0
2016-12-20T06:39:04.233Z,0
2016-12-20T06:40:04.553Z,0
2016-12-20T06:41:04.891Z,0
2016-12-20T06:42:04.545Z,0
2016-12-20T06:43:04.537Z,0
2016-12-20T06:44:04.217Z,0
2016-12-20T06:45:04.857Z,0
2016-12-20T06:46:04.845Z,0
2016-12-20T06:47:04.565Z,0
2016-12-20T06:48:04.841Z,0
2016-12-20T06:49:04.517Z,0
2016-12-20T06:50:04.506Z,0
2016-12-20T06:51:04.489Z,0
2016-12-20T06:52:04.178Z,0
2016-12-20T06:53:04.158Z,0
2016-12-20T06:54:04.161Z,0
2016-12-20T06:55:04.490Z,0
2016-12-20T06:56:04.142Z,0
2016-12-20T06:57:04.162Z,0
2016-12-20T06:58:04.802Z,0
2016-12-20T06:59:04.130Z,0
2016-12-20T07:00:04.458Z,0
2016-12-20T07:01:04.770Z,0
2016-12-20T07:02:04.114Z,0
2016-12-20T07:03:04.106Z,0
2016-12-20T07:04:04.766Z,0
2016-12-20T07:05:04.410Z,0
2016-12-20T07:06:04.418Z,0
2016-12-20T07:07:04.406Z,0
2016-12-20T07:08:04.082Z,0
2016-12-20T07:09:04.410Z,0
2016-12-20T07:10:04.390Z,5
2016-12-20T07:11:04.394Z,5
2016-12-20T07:12:04.710Z,5
2016-12-20T07:13:04.050Z,5
2016-12-20T07:14:04.382Z,5
2016-12-20T07:15:03.703Z,5
2016-12-20T07:16:04.366Z,5
2016-12-20T07:17:04.034Z,5
2016-12-20T07:18:04.023Z,5
2016-12-20T07:19:04.346Z,5
2016-12-20T07:20:04.671Z,5
2016-12-20T07:21:03.694Z,5
2016-12-20T07:22:04.006Z,5
2016-12-20T07:23:03.994Z,10
2016-12-20T07:24:04.326Z,10
2016-12-20T07:25:04.642Z,10
2016-12-20T07:26:04.670Z,10
2016-12-20T07:27:04.297Z,10
2016-12-20T07:28:04.617Z,10
2016-12-20T07:29:04.289Z,10
2016-12-20T07:30:03.957Z,10
2016-12-20T07:31:04.609Z,10
2016-12-20T07:32:04.601Z,10
2016-12-20T07:33:04.041Z,10
2016-12-20T07:34:04.269Z,10
2016-12-20T07:35:04.263Z,15
2016-12-20T07:36:03.937Z,15
2016-12-20T07:37:03.925Z,15
2016-12-20T07:38:03.908Z,15
2016-12-20T07:39:03.580Z,15
2016-12-20T07:40:03.908Z,15
2016-12-20T07:41:04.548Z,15
2016-12-20T07:42:04.544Z,15
2016-12-20T07:43:04.216Z,15
2016-12-20T07:44:03.876Z,15
2016-12-20T07:45:04.212Z,15
2016-12-20T07:46:03.872Z,15
2016-12-20T07:47:04.228Z,20
2016-12-20T07:48:03.872Z,20
2016-12-20T07:49:04.184Z,20
2016-12-20T07:50:03.520Z,20
2016-12-20T07:51:03.844Z,20
2016-12-20T07:52:03.844Z,20
2016-12-20T07:53:03.508Z,20
2016-12-20T07:54:04.164Z,20
2016-12-20T07:55:04.160Z,20
2016-12-20T07:56:04.468Z,20
2016-12-20T07:57:03.824Z,20
2016-12-20T07:58:04.132Z,20
2016-12-20T07:59:04.459Z,20
2016-12-20T08:00:04.452Z,25
2016-12-20T08:01:04.444Z,25
2016-12-20T08:02:03.460Z,25
2016-12-20T08:03:03.131Z,25
2016-12-20T08:04:03.779Z,25
2016-12-20T08:05:03.776Z,25
2016-12-20T08:06:04.092Z,25
2016-12-20T08:07:03.755Z,25
2016-12-20T08:08:04.090Z,25
2016-12-20T08:09:04.415Z,25
2016-12-20T08:10:04.082Z,25
2016-12-20T08:11:03.752Z,30
2016-12-20T08:12:03.739Z,30
2016-12-20T08:13:04.067Z,30
2016-12-20T08:14:03.396Z,30
2016-12-20T08:15:04.046Z,30
2016-12-20T08:16:04.372Z,30
2016-12-20T08:17:04.040Z,35
2016-12-20T08:18:03.716Z,35
2016-12-20T08:19:04.032Z,35
2016-12-20T08:20:04.032Z,35
2016-12-20T08:21:03.689Z,35
2016-12-20T08:22:03.688Z,35
2016-12-20T08:23:04.037Z,40
2016-12-20T08:24:03.685Z,40
2016-12-20T08:25:03.677Z,40
2016-12-20T08:26:04.328Z,40
2016-12-20T08:27:03.990Z,40
2016-12-20T08:28:03.649Z,45
2016-12-20T08:29:03.990Z,45
2016-12-20T08:30:04.310Z,45
2016-12-20T08:31:03.969Z,45
2016-12-20T08:32:03.998Z,45
2016-12-20T08:33:03.634Z,45
2016-12-20T08:34:03.998Z,45
2016-12-20T08:35:03.646Z,50
2016-12-20T08:36:03.954Z,50
2016-12-20T08:37:03.602Z,50
2016-12-20T08:38:04.258Z,50
2016-12-20T08:39:03.625Z,55
2016-12-20T08:40:03.927Z,55
2016-12-20T08:41:04.255Z,55
2016-12-20T08:42:03.591Z,55
2016-12-20T08:43:03.915Z,55
2016-12-20T08:44:03.935Z,55
2016-12-20T08:45:04.243Z,55
2016-12-20T08:46:03.563Z,55
2016-12-20T08:47:03.931Z,55
2016-12-20T08:48:03.587Z,55
2016-12-20T08:49:03.875Z,55
2016-12-20T08:50:03.551Z,55
2016-12-20T08:51:03.212Z,55
2016-12-20T08:52:04.196Z,55
2016-12-20T08:53:04.187Z,55
2016-12-20T08:54:03.539Z,55
2016-12-20T08:55:03.529Z,55
2016-12-20T08:56:03.851Z,55
2016-12-20T08:57:03.845Z,55
2016-12-20T08:58:03.833Z,55
2016-12-20T08:59:03.173Z,55
2016-12-20T09:00:03.533Z,55
2016-12-20T09:01:03.821Z,55
2016-12-20T09:02:04.142Z,55
2016-12-20T09:03:03.817Z,60
2016-12-20T09:04:04.135Z,60
2016-12-20T09:05:04.142Z,55
2016-12-20T09:06:03.146Z,55
2016-12-20T09:07:03.150Z,55
2016-12-20T09:08:03.806Z,55
2016-12-20T09:09:03.782Z,55
2016-12-20T09:10:03.454Z,55
2016-12-20T09:11:03.783Z,55
2016-12-20T09:12:04.107Z,60
2016-12-20T09:13:03.763Z,60
2016-12-20T09:14:03.447Z,60
2016-12-20T09:15:04.087Z,60
2016-12-20T09:16:03.751Z,60
2016-12-20T09:17:03.755Z,60
2016-12-20T09:18:03.743Z,60
2016-12-20T09:19:03.415Z,60
2016-12-20T09:20:03.080Z,60
2016-12-20T09:21:03.732Z,60
2016-12-20T09:22:03.739Z,60
2016-12-20T09:23:03.408Z,60
2016-12-20T09:24:03.736Z,65
2016-12-20T09:25:03.760Z,65
2016-12-20T09:26:04.040Z,65
2016-12-20T09:27:03.712Z,60
2016-12-20T09:28:03.380Z,60
2016-12-20T09:29:03.381Z,60
2016-12-20T09:30:03.696Z,60
2016-12-20T09:31:03.692Z,60
2016-12-20T09:32:04.017Z,60
2016-12-20T09:33:03.689Z,60
2016-12-20T09:34:03.677Z,60
2016-12-20T09:35:03.353Z,60
2016-12-20T09:36:03.681Z,60
2016-12-20T09:37:03.657Z,60
2016-12-20T09:38:03.993Z,55
2016-12-20T09:39:03.993Z,55
2016-12-20T09:40:03.322Z,55
2016-12-20T09:41:03.322Z,55
2016-12-20T09:42:03.310Z,60
2016-12-20T09:43:03.638Z,60
2016-12-20T09:44:03.642Z,60
2016-12-20T09:45:03.630Z,60
2016-12-20T09:46:03.966Z,60
2016-12-20T09:47:03.626Z,60
2016-12-20T09:48:03.626Z,60
2016-12-20T09:49:03.938Z,60
2016-12-20T09:50:03.954Z,60
2016-12-20T09:51:03.966Z,60
2016-12-20T09:52:03.602Z,65
2016-12-20T09:53:03.602Z,65
2016-12-20T09:54:03.599Z,65
2016-12-20T09:55:03.586Z,65
2016-12-20T09:56:03.910Z,70
2016-12-20T09:57:03.574Z,70
2016-12-20T09:58:03.582Z,75
2016-12-20T09:59:03.571Z,75
2016-12-20T10:00:03.895Z,75
2016-12-20T10:01:03.894Z,70
2016-12-20T10:02:03.886Z,70
2016-12-20T10:03:03.248Z,70
2016-12-20T10:04:03.551Z,70
2016-12-20T10:05:03.219Z,70
2016-12-20T10:06:03.211Z,70
2016-12-20T10:07:03.523Z,70
2016-12-20T10:08:03.531Z,70
2016-12-20T10:09:03.859Z,70
2016-12-20T10:10:03.527Z,75
2016-12-20T10:11:03.519Z,80
2016-12-20T10:12:03.843Z,80
2016-12-20T10:13:03.523Z,75
2016-12-20T10:14:03.831Z,75
2016-12-20T10:15:03.180Z,75
2016-12-20T10:16:02.852Z,75
2016-12-20T10:17:03.507Z,75
2016-12-20T10:18:03.167Z,75
2016-12-20T10:19:03.491Z,75
2016-12-20T10:20:03.488Z,75
2016-12-20T10:21:03.803Z,75
2016-12-20T10:22:03.488Z,80
2016-12-20T10:23:03.151Z,80
2016-12-20T10:24:03.479Z,80
2016-12-20T10:25:03.479Z,80
2016-12-20T10:26:03.135Z,80
2016-12-20T10:27:03.784Z,80
2016-12-20T10:28:02.804Z,80
2016-12-20T10:29:03.127Z,80
2016-12-20T10:30:03.776Z,80
2016-12-20T10:31:03.763Z,80
2016-12-20T10:32:03.127Z,80
2016-12-20T10:33:03.440Z,80
2016-12-20T10:34:03.756Z,80
2016-12-20T10:35:03.751Z,80
2016-12-20T10:36:03.090Z,80
2016-12-20T10:37:03.740Z,80
2016-12-20T10:38:03.428Z,80
2016-12-20T10:39:03.083Z,80
2016-12-20T10:40:03.403Z,80
2016-12-20T10:41:03.731Z,80
2016-12-20T10:42:02.788Z,80
2016-12-20T10:43:03.392Z,80
2016-12-20T10:44:03.736Z,80
2016-12-20T10:45:03.392Z,80
2016-12-20T10:46:03.383Z,80
2016-12-20T10:47:03.376Z,80
2016-12-20T10:48:03.056Z,75
2016-12-20T10:49:03.384Z,75
2016-12-20T10:50:03.372Z,75
2016-12-20T10:51:03.040Z,75
2016-12-20T10:52:03.048Z,75
2016-12-20T10:53:03.036Z,75
2016-12-20T10:54:03.684Z,75
2016-12-20T10:55:03.028Z,70
2016-12-20T10:56:03.348Z,70
2016-12-20T10:57:03.364Z,70
2016-12-20T10:58:03.669Z,70
2016-12-20T10:59:03.004Z,70
2016-12-20T11:00:03.328Z,70
2016-12-20T11:01:03.336Z,70
2016-12-20T11:02:03.000Z,65
2016-12-20T11:03:03.004Z,65
2016-12-20T11:04:03.324Z,65
2016-12-20T11:05:03.313Z,65
2016-12-20T11:06:03.020Z,65
2016-12-20T11:07:03.688Z,65
2016-12-20T11:08:02.985Z,65
2016-12-20T11:09:03.297Z,65
2016-12-20T11:10:03.297Z,65
2016-12-20T11:11:03.297Z,65
2016-12-20T11:12:02.961Z,65
2016-12-20T11:13:03.613Z,65
2016-12-20T11:14:03.309Z,65
2016-12-20T11:15:03.597Z,65
2016-12-20T11:16:02.621Z,65
2016-12-20T11:17:03.261Z,65
2016-12-20T11:18:03.597Z,65
2016-12-20T11:19:02.945Z,65
2016-12-20T11:20:03.593Z,65
2016-12-20T11:21:03.593Z,65
2016-12-20T11:22:03.301Z,70
2016-12-20T11:23:02.917Z,70
2016-12-20T11:24:02.949Z,75
2016-12-20T11:25:03.609Z,75
2016-12-20T11:26:03.565Z,75
2016-12-20T11:27:03.237Z,75
2016-12-20T11:28:03.569Z,80
2016-12-20T11:29:03.565Z,80
2016-12-20T11:30:03.229Z,80
2016-12-20T11:31:03.241Z,85
2016-12-20T11:32:03.549Z,85
2016-12-20T11:33:03.537Z,85
2016-12-20T11:34:03.537Z,85
2016-12-20T11:35:02.557Z,85
2016-12-20T11:36:03.205Z,85
2016-12-20T11:37:03.189Z,85
2016-12-20T11:38:03.521Z,85
2016-12-20T11:39:03.201Z,85
2016-12-20T11:40:03.521Z,85
2016-12-20T11:41:03.181Z,85
2016-12-20T11:42:03.177Z,85
2016-12-20T11:43:03.185Z,85
2016-12-20T11:44:03.497Z,85
2016-12-20T11:45:02.517Z,85
2016-12-20T11:46:02.845Z,85
2016-12-20T11:47:03.161Z,85
2016-12-20T11:48:02.837Z,85
2016-12-20T11:49:03.160Z,80
2016-12-20T11:50:03.145Z,80
2016-12-20T11:51:03.184Z,80
2016-12-20T11:52:03.144Z,80
2016-12-20T11:53:03.465Z,80
2016-12-20T11:54:03.140Z,80
2016-12-20T11:55:03.138Z,80
2016-12-20T11:56:02.475Z,80
2016-12-20T11:57:03.448Z,80
2016-12-20T11:58:03.120Z,80
2016-12-20T11:59:03.116Z,80
2016-12-20T12:00:03.119Z,85
2016-12-20T12:01:03.116Z,85
2016-12-20T12:02:03.111Z,85
2016-12-20T12:03:03.107Z,85
2016-12-20T12:04:02.779Z,85
2016-12-20T12:05:03.419Z,80
2016-12-20T12:06:03.419Z,80
2016-12-20T12:07:03.090Z,80
2016-12-20T12:08:03.087Z,80
2016-12-20T12:09:02.435Z,80
2016-12-20T12:10:02.755Z,75
2016-12-20T12:11:02.751Z,75
2016-12-20T12:12:03.074Z,75
2016-12-20T12:13:03.067Z,75
2016-12-20T12:14:03.398Z,80
2016-12-20T12:15:03.390Z,80
2016-12-20T12:16:03.062Z,80
2016-12-20T12:17:03.066Z,80
2016-12-20T12:18:03.054Z,80
2016-12-20T12:19:03.378Z,80
2016-12-20T12:20:03.370Z,80
2016-12-20T12:21:02.750Z,80
2016-12-20T12:22:03.043Z,80
2016-12-20T12:23:03.047Z,75
2016-12-20T12:24:03.046Z,75
2016-12-20T12:25:03.355Z,75
2016-12-20T12:26:03.359Z,75
2016-12-20T12:27:03.019Z,75
2016-12-20T12:28:03.019Z,75
2016-12-20T12:29:03.343Z,75
2016-12-20T12:30:03.543Z,75
2016-12-20T12:31:03.011Z,75
2016-12-20T12:32:02.691Z,80
2016-12-20T12:33:03.327Z,80
2016-12-20T12:34:02.351Z,80
2016-12-20T12:35:02.023Z,80
2016-12-20T12:36:03.323Z,80
2016-12-20T12:37:02.655Z,80
2016-12-20T12:38:02.675Z,80
2016-12-20T12:39:03.307Z,80
2016-12-20T12:40:03.400Z,80
2016-12-20T12:41:02.655Z,75
2016-12-20T12:42:02.656Z,75
2016-12-20T12:43:02.663Z,75
2016-12-20T12:44:02.667Z,75
2016-12-20T12:45:03.020Z,75
2016-12-20T12:46:02.972Z,75
2016-12-20T12:47:02.968Z,75
2016-12-20T12:48:02.964Z,75
2016-12-20T12:49:02.948Z,75
2016-12-20T12:50:02.964Z,75
2016-12-20T12:51:02.948Z,75
2016-12-20T12:52:02.620Z,75
2016-12-20T12:53:02.617Z,75
2016-12-20T12:54:03.264Z,75
2016-12-20T12:55:02.608Z,75
2016-12-20T12:56:02.940Z,70
2016-12-20T12:57:02.928Z,70
2016-12-20T12:58:02.929Z,70
2016-12-20T12:59:02.597Z,70
2016-12-20T13:00:02.941Z,70
2016-12-20T13:01:02.596Z,65
2016-12-20T13:02:02.913Z,65
2016-12-20T13:03:03.237Z,65
2016-12-20T13:04:03.273Z,65
2016-12-20T13:05:02.905Z,65
2016-12-20T13:06:03.221Z,65
2016-12-20T13:07:02.897Z,65
2016-12-20T13:08:02.569Z,65
2016-12-20T13:09:03.225Z,65
2016-12-20T13:10:02.561Z,60
2016-12-20T13:11:02.889Z,60
2016-12-20T13:12:03.201Z,60
2016-12-20T13:13:03.209Z,60
2016-12-20T13:14:03.201Z,60
2016-12-20T13:15:02.869Z,60
2016-12-20T13:16:02.873Z,60
2016-12-20T13:17:02.869Z,60
2016-12-20T13:18:02.862Z,60
2016-12-20T13:19:03.198Z,55
2016-12-20T13:20:02.539Z,55
2016-12-20T13:21:02.849Z,55
2016-12-20T13:22:03.189Z,55
2016-12-20T13:23:03.177Z,55
2016-12-20T13:24:02.526Z,55
2016-12-20T13:25:02.853Z,55
2016-12-20T13:26:02.837Z,55
2016-12-20T13:27:02.517Z,55
2016-12-20T13:28:02.833Z,55
2016-12-20T13:29:02.834Z,55
2016-12-20T13:30:03.149Z,55
2016-12-20T13:31:03.146Z,55
2016-12-20T13:32:02.494Z,50
2016-12-20T13:33:02.490Z,50
2016-12-20T13:34:03.154Z,50
2016-12-20T13:35:02.802Z,50
2016-12-20T13:36:02.805Z,50
2016-12-20T13:37:03.150Z,50
2016-12-20T13:38:03.138Z,50
2016-12-20T13:39:02.800Z,50
2016-12-20T13:40:03.154Z,50
2016-12-20T13:41:03.126Z,50
2016-12-20T13:42:02.806Z,45
2016-12-20T13:43:02.790Z,45
2016-12-20T13:44:02.791Z,45
2016-12-20T13:45:02.779Z,45
2016-12-20T13:46:02.773Z,45
2016-12-20T13:47:02.786Z,45
2016-12-20T13:48:02.451Z,45
2016-12-20T13:49:02.775Z,45
2016-12-20T13:50:02.770Z,45
2016-12-20T13:51:02.759Z,45
2016-12-20T13:52:03.087Z,40
2016-12-20T13:53:03.087Z,40
2016-12-20T13:54:02.756Z,40
2016-12-20T13:55:03.083Z,40
2016-12-20T13:56:03.075Z,40
2016-12-20T13:57:02.747Z,40
2016-12-20T13:58:03.075Z,40
2016-12-20T13:59:02.739Z,35
2016-12-20T14:00:02.736Z,35
2016-12-20T14:01:02.747Z,35
2016-12-20T14:02:03.055Z,35
2016-12-20T14:03:02.728Z,35
2016-12-20T14:04:03.048Z,35
2016-12-20T14:05:02.387Z,30
2016-12-20T14:06:02.716Z,30
2016-12-20T14:07:02.711Z,30
2016-12-20T14:08:02.716Z,30
2016-12-20T14:09:03.032Z,30
2016-12-20T14:10:03.032Z,30
2016-12-20T14:11:03.027Z,30
2016-12-20T14:12:03.028Z,30
2016-12-20T14:13:03.027Z,30
2016-12-20T14:14:02.368Z,30
2016-12-20T14:15:02.683Z,30
2016-12-20T14:16:02.368Z,30
2016-12-20T14:17:02.680Z,30
2016-12-20T14:18:03.004Z,30
2016-12-20T14:19:02.336Z,30
2016-12-20T14:20:02.992Z,30
2016-12-20T14:21:02.160Z,25
2016-12-20T14:22:02.352Z,25
2016-12-20T14:23:02.992Z,25
2016-12-20T14:24:02.980Z,25
2016-12-20T14:25:02.656Z,25
2016-12-20T14:26:02.648Z,25
2016-12-20T14:27:02.647Z,25
2016-12-20T14:28:02.671Z,25
2016-12-20T14:29:02.963Z,20
2016-12-20T14:30:02.003Z,20
2016-12-20T14:31:02.630Z,20